sensor_id;sensor_type;location;lat;lon;timestamp;P1;durP1;ratioP1;P2;durP2;ratioP2
77051;SDS011;65980;44.898;8.602;2023-09-08T00:00:19;15.60;;;9.20;;
77051;SDS011;65980;44.898;8.602;2023-09-08T00:03:24;12.10;;;9.50;;
77051;SDS011;65980;44.898;8.602;2023-09-08T00:06:28;16.08;;;9.20;;
77051;SDS011;65980;44.898;8.602;2023-09-08T00:09:32;15.95;;;9.60;;
77051;SDS011;65980;44.898;8.602;2023-09-08T00:12:36;19.65;;;9.90;;
77051;SDS011;65980;44.898;8.602;2023-09-08T00:15:40;12.23;;;9.32;;
77051;SDS011;65980;44.898;8.602;2023-09-08T00:18:44;15.98;;;9.90;;
77051;SDS011;65980;44.898;8.602;2023-09-08T00:21:48;16.13;;;9.18;;
77051;SDS011;65980;44.898;8.602;2023-09-08T00:24:56;14.70;;;9.63;;
77051;SDS011;65980;44.898;8.602;2023-09-08T00:28:00;13.23;;;9.77;;
77051;SDS011;65980;44.898;8.602;2023-09-08T00:31:03;13.60;;;9.82;;
77051;SDS011;65980;44.898;8.602;2023-09-08T00:34:09;13.77;;;10.05;;
77051;SDS011;65980;44.898;8.602;2023-09-08T00:37:13;12.80;;;9.68;;
77051;SDS011;65980;44.898;8.602;2023-09-08T00:40:17;17.48;;;9.18;;
77051;SDS011;65980;44.898;8.602;2023-09-08T00:43:22;14.70;;;10.15;;
77051;SDS011;65980;44.898;8.602;2023-09-08T00:46:26;15.98;;;9.98;;
77051;SDS011;65980;44.898;8.602;2023-09-08T00:49:31;15.07;;;10.52;;
77051;SDS011;65980;44.898;8.602;2023-09-08T00:52:36;13.23;;;9.68;;
77051;SDS011;65980;44.898;8.602;2023-09-08T00:55:40;13.63;;;9.45;;
77051;SDS011;65980;44.898;8.602;2023-09-08T00:58:45;13.50;;;10.00;;
77051;SDS011;65980;44.898;8.602;2023-09-08T01:01:50;16.13;;;10.05;;
77051;SDS011;65980;44.898;8.602;2023-09-08T01:04:55;14.15;;;10.02;;
77051;SDS011;65980;44.898;8.602;2023-09-08T01:08:00;14.20;;;9.60;;
77051;SDS011;65980;44.898;8.602;2023-09-08T01:11:05;13.10;;;9.98;;
77051;SDS011;65980;44.898;8.602;2023-09-08T01:14:13;13.18;;;9.52;;
77051;SDS011;65980;44.898;8.602;2023-09-08T01:17:17;14.57;;;9.43;;
77051;SDS011;65980;44.898;8.602;2023-09-08T01:20:26;11.82;;;9.57;;
77051;SDS011;65980;44.898;8.602;2023-09-08T01:26:53;14.82;;;9.30;;
77051;SDS011;65980;44.898;8.602;2023-09-08T01:29:57;16.00;;;9.95;;
77051;SDS011;65980;44.898;8.602;2023-09-08T01:33:04;15.93;;;9.30;;
77051;SDS011;65980;44.898;8.602;2023-09-08T01:36:09;11.23;;;8.23;;
77051;SDS011;65980;44.898;8.602;2023-09-08T01:39:16;13.05;;;9.10;;
77051;SDS011;65980;44.898;8.602;2023-09-08T01:42:20;11.98;;;8.23;;
77051;SDS011;65980;44.898;8.602;2023-09-08T01:45:25;17.55;;;9.02;;
77051;SDS011;65980;44.898;8.602;2023-09-08T01:48:28;16.90;;;7.82;;
77051;SDS011;65980;44.898;8.602;2023-09-08T01:51:32;12.27;;;8.30;;
77051;SDS011;65980;44.898;8.602;2023-09-08T01:54:38;13.63;;;8.57;;
77051;SDS011;65980;44.898;8.602;2023-09-08T01:57:42;14.05;;;9.20;;
77051;SDS011;65980;44.898;8.602;2023-09-08T02:00:50;14.77;;;8.38;;
77051;SDS011;65980;44.898;8.602;2023-09-08T02:03:58;16.35;;;8.52;;
77051;SDS011;65980;44.898;8.602;2023-09-08T02:07:02;16.02;;;9.88;;
77051;SDS011;65980;44.898;8.602;2023-09-08T02:10:08;13.88;;;8.70;;
77051;SDS011;65980;44.898;8.602;2023-09-08T02:13:15;12.70;;;9.05;;
77051;SDS011;65980;44.898;8.602;2023-09-08T02:16:19;16.80;;;8.88;;
77051;SDS011;65980;44.898;8.602;2023-09-08T02:19:24;13.27;;;8.55;;
77051;SDS011;65980;44.898;8.602;2023-09-08T02:22:28;12.38;;;8.82;;
77051;SDS011;65980;44.898;8.602;2023-09-08T02:25:33;14.65;;;9.52;;
77051;SDS011;65980;44.898;8.602;2023-09-08T02:28:38;11.30;;;8.93;;
77051;SDS011;65980;44.898;8.602;2023-09-08T02:31:43;15.68;;;9.93;;
77051;SDS011;65980;44.898;8.602;2023-09-08T02:34:48;18.77;;;10.15;;
77051;SDS011;65980;44.898;8.602;2023-09-08T02:37:54;16.17;;;9.75;;
77051;SDS011;65980;44.898;8.602;2023-09-08T02:40:59;18.77;;;11.55;;
77051;SDS011;65980;44.898;8.602;2023-09-08T02:44:04;13.40;;;9.80;;
77051;SDS011;65980;44.898;8.602;2023-09-08T02:47:09;17.60;;;9.60;;
77051;SDS011;65980;44.898;8.602;2023-09-08T02:50:15;14.23;;;9.18;;
77051;SDS011;65980;44.898;8.602;2023-09-08T02:53:20;18.88;;;9.85;;
77051;SDS011;65980;44.898;8.602;2023-09-08T02:56:24;18.65;;;10.73;;
77051;SDS011;65980;44.898;8.602;2023-09-08T02:59:30;14.07;;;10.70;;
77051;SDS011;65980;44.898;8.602;2023-09-08T03:02:33;20.23;;;11.02;;
77051;SDS011;65980;44.898;8.602;2023-09-08T03:05:38;15.07;;;10.07;;
77051;SDS011;65980;44.898;8.602;2023-09-08T03:08:43;17.20;;;10.20;;
77051;SDS011;65980;44.898;8.602;2023-09-08T03:11:47;19.90;;;11.02;;
77051;SDS011;65980;44.898;8.602;2023-09-08T03:14:51;15.35;;;11.52;;
77051;SDS011;65980;44.898;8.602;2023-09-08T03:17:56;23.17;;;10.70;;
77051;SDS011;65980;44.898;8.602;2023-09-08T03:21:02;19.58;;;12.27;;
77051;SDS011;65980;44.898;8.602;2023-09-08T03:24:12;19.02;;;11.95;;
77051;SDS011;65980;44.898;8.602;2023-09-08T03:27:19;19.90;;;13.23;;
77051;SDS011;65980;44.898;8.602;2023-09-08T03:30:23;21.98;;;13.50;;
77051;SDS011;65980;44.898;8.602;2023-09-08T03:33:26;21.00;;;13.80;;
77051;SDS011;65980;44.898;8.602;2023-09-08T03:36:31;21.50;;;13.80;;
77051;SDS011;65980;44.898;8.602;2023-09-08T03:39:40;24.30;;;13.40;;
77051;SDS011;65980;44.898;8.602;2023-09-08T03:42:44;21.35;;;13.52;;
77051;SDS011;65980;44.898;8.602;2023-09-08T03:45:47;32.05;;;13.93;;
77051;SDS011;65980;44.898;8.602;2023-09-08T03:48:52;20.98;;;13.27;;
77051;SDS011;65980;44.898;8.602;2023-09-08T03:52:01;23.70;;;13.20;;
77051;SDS011;65980;44.898;8.602;2023-09-08T03:55:06;18.65;;;13.02;;
77051;SDS011;65980;44.898;8.602;2023-09-08T03:58:11;21.80;;;14.50;;
77051;SDS011;65980;44.898;8.602;2023-09-08T04:01:15;27.00;;;13.52;;
77051;SDS011;65980;44.898;8.602;2023-09-08T04:04:18;19.83;;;13.63;;
77051;SDS011;65980;44.898;8.602;2023-09-08T04:07:28;21.35;;;13.98;;
77051;SDS011;65980;44.898;8.602;2023-09-08T04:10:31;23.48;;;14.70;;
77051;SDS011;65980;44.898;8.602;2023-09-08T04:13:36;20.10;;;12.35;;
77051;SDS011;65980;44.898;8.602;2023-09-08T04:16:39;21.20;;;13.20;;
77051;SDS011;65980;44.898;8.602;2023-09-08T04:19:43;18.67;;;12.68;;
77051;SDS011;65980;44.898;8.602;2023-09-08T04:22:47;21.23;;;13.80;;
77051;SDS011;65980;44.898;8.602;2023-09-08T04:25:52;22.08;;;13.20;;
77051;SDS011;65980;44.898;8.602;2023-09-08T04:28:57;17.48;;;13.10;;
77051;SDS011;65980;44.898;8.602;2023-09-08T04:32:01;19.90;;;11.55;;
77051;SDS011;65980;44.898;8.602;2023-09-08T04:35:12;17.77;;;11.65;;
77051;SDS011;65980;44.898;8.602;2023-09-08T04:38:16;22.30;;;11.57;;
77051;SDS011;65980;44.898;8.602;2023-09-08T04:41:20;16.13;;;10.65;;
77051;SDS011;65980;44.898;8.602;2023-09-08T04:44:25;14.85;;;9.88;;
77051;SDS011;65980;44.898;8.602;2023-09-08T04:47:29;15.00;;;10.23;;
77051;SDS011;65980;44.898;8.602;2023-09-08T04:50:35;20.60;;;9.73;;
77051;SDS011;65980;44.898;8.602;2023-09-08T04:53:38;14.35;;;8.82;;
77051;SDS011;65980;44.898;8.602;2023-09-08T04:56:43;15.07;;;8.90;;
77051;SDS011;65980;44.898;8.602;2023-09-08T04:59:48;12.70;;;9.13;;
77051;SDS011;65980;44.898;8.602;2023-09-08T05:02:52;16.35;;;9.02;;
77051;SDS011;65980;44.898;8.602;2023-09-08T05:05:57;13.40;;;9.23;;
77051;SDS011;65980;44.898;8.602;2023-09-08T05:09:02;12.48;;;9.15;;
77051;SDS011;65980;44.898;8.602;2023-09-08T05:12:07;13.15;;;9.43;;
77051;SDS011;65980;44.898;8.602;2023-09-08T05:15:14;13.00;;;9.27;;
77051;SDS011;65980;44.898;8.602;2023-09-08T05:18:24;14.02;;;9.32;;
77051;SDS011;65980;44.898;8.602;2023-09-08T05:21:29;19.23;;;9.05;;
77051;SDS011;65980;44.898;8.602;2023-09-08T05:24:34;11.30;;;8.45;;
77051;SDS011;65980;44.898;8.602;2023-09-08T05:27:39;13.20;;;9.73;;
77051;SDS011;65980;44.898;8.602;2023-09-08T05:30:42;15.48;;;8.82;;
77051;SDS011;65980;44.898;8.602;2023-09-08T05:33:48;17.88;;;9.15;;
77051;SDS011;65980;44.898;8.602;2023-09-08T05:36:51;21.80;;;9.18;;
77051;SDS011;65980;44.898;8.602;2023-09-08T05:42:59;11.82;;;8.15;;
77051;SDS011;65980;44.898;8.602;2023-09-08T05:46:04;14.82;;;7.82;;
77051;SDS011;65980;44.898;8.602;2023-09-08T05:49:08;15.90;;;8.25;;
77051;SDS011;65980;44.898;8.602;2023-09-08T05:52:14;14.93;;;8.25;;
77051;SDS011;65980;44.898;8.602;2023-09-08T05:55:20;11.52;;;7.75;;
77051;SDS011;65980;44.898;8.602;2023-09-08T05:58:25;15.35;;;8.45;;
77051;SDS011;65980;44.898;8.602;2023-09-08T06:01:31;18.85;;;8.27;;
77051;SDS011;65980;44.898;8.602;2023-09-08T06:04:37;13.57;;;7.60;;
77051;SDS011;65980;44.898;8.602;2023-09-08T06:07:41;16.58;;;9.07;;
77051;SDS011;65980;44.898;8.602;2023-09-08T06:10:47;20.27;;;9.73;;
77051;SDS011;65980;44.898;8.602;2023-09-08T06:13:51;16.92;;;10.50;;
77051;SDS011;65980;44.898;8.602;2023-09-08T06:16:58;21.00;;;10.50;;
77051;SDS011;65980;44.898;8.602;2023-09-08T06:20:02;15.55;;;9.38;;
77051;SDS011;65980;44.898;8.602;2023-09-08T06:23:08;17.70;;;8.85;;
77051;SDS011;65980;44.898;8.602;2023-09-08T06:26:12;20.20;;;9.23;;
77051;SDS011;65980;44.898;8.602;2023-09-08T06:29:18;24.20;;;11.65;;
77051;SDS011;65980;44.898;8.602;2023-09-08T06:32:22;20.73;;;11.77;;
77051;SDS011;65980;44.898;8.602;2023-09-08T06:35:26;27.75;;;12.57;;
77051;SDS011;65980;44.898;8.602;2023-09-08T06:38:31;27.13;;;13.13;;
77051;SDS011;65980;44.898;8.602;2023-09-08T06:41:36;28.67;;;14.40;;
77051;SDS011;65980;44.898;8.602;2023-09-08T06:44:42;25.70;;;14.93;;
77051;SDS011;65980;44.898;8.602;2023-09-08T06:47:46;27.50;;;15.00;;
77051;SDS011;65980;44.898;8.602;2023-09-08T06:50:53;24.90;;;15.85;;
77051;SDS011;65980;44.898;8.602;2023-09-08T06:54:01;24.98;;;16.23;;
77051;SDS011;65980;44.898;8.602;2023-09-08T06:57:12;30.27;;;16.27;;
77051;SDS011;65980;44.898;8.602;2023-09-08T07:00:18;24.60;;;15.57;;
77051;SDS011;65980;44.898;8.602;2023-09-08T07:03:24;23.13;;;15.65;;
77051;SDS011;65980;44.898;8.602;2023-09-08T07:06:30;24.02;;;15.70;;
77051;SDS011;65980;44.898;8.602;2023-09-08T07:09:35;23.25;;;15.38;;
77051;SDS011;65980;44.898;8.602;2023-09-08T07:12:41;27.92;;;15.55;;
77051;SDS011;65980;44.898;8.602;2023-09-08T07:15:46;22.15;;;15.73;;
77051;SDS011;65980;44.898;8.602;2023-09-08T07:18:51;22.55;;;13.70;;
77051;SDS011;65980;44.898;8.602;2023-09-08T07:21:55;21.30;;;14.57;;
77051;SDS011;65980;44.898;8.602;2023-09-08T07:24:59;24.95;;;15.27;;
77051;SDS011;65980;44.898;8.602;2023-09-08T07:28:08;24.80;;;14.63;;
77051;SDS011;65980;44.898;8.602;2023-09-08T07:31:15;28.35;;;15.48;;
77051;SDS011;65980;44.898;8.602;2023-09-08T07:34:23;21.13;;;14.68;;
77051;SDS011;65980;44.898;8.602;2023-09-08T07:37:30;25.15;;;14.77;;
77051;SDS011;65980;44.898;8.602;2023-09-08T07:40:34;23.83;;;14.60;;
77051;SDS011;65980;44.898;8.602;2023-09-08T07:43:39;23.13;;;14.52;;
77051;SDS011;65980;44.898;8.602;2023-09-08T07:46:53;23.88;;;15.45;;
77051;SDS011;65980;44.898;8.602;2023-09-08T07:50:20;27.50;;;15.55;;
77051;SDS011;65980;44.898;8.602;2023-09-08T07:53:27;24.88;;;15.13;;
77051;SDS011;65980;44.898;8.602;2023-09-08T07:56:32;18.55;;;14.55;;
77051;SDS011;65980;44.898;8.602;2023-09-08T07:59:36;22.10;;;14.82;;
77051;SDS011;65980;44.898;8.602;2023-09-08T08:02:49;24.30;;;14.40;;
77051;SDS011;65980;44.898;8.602;2023-09-08T08:05:56;27.88;;;15.63;;
77051;SDS011;65980;44.898;8.602;2023-09-08T08:09:02;23.92;;;13.18;;
77051;SDS011;65980;44.898;8.602;2023-09-08T08:12:06;22.67;;;15.05;;
77051;SDS011;65980;44.898;8.602;2023-09-08T08:15:11;19.02;;;13.15;;
77051;SDS011;65980;44.898;8.602;2023-09-08T08:18:15;17.85;;;12.82;;
77051;SDS011;65980;44.898;8.602;2023-09-08T08:21:21;24.48;;;14.35;;
77051;SDS011;65980;44.898;8.602;2023-09-08T08:24:26;23.40;;;13.73;;
77051;SDS011;65980;44.898;8.602;2023-09-08T08:27:30;31.42;;;14.82;;
77051;SDS011;65980;44.898;8.602;2023-09-08T08:30:34;19.90;;;13.13;;
77051;SDS011;65980;44.898;8.602;2023-09-08T08:33:40;22.45;;;14.65;;
77051;SDS011;65980;44.898;8.602;2023-09-08T08:36:44;20.73;;;13.60;;
77051;SDS011;65980;44.898;8.602;2023-09-08T08:39:49;25.30;;;14.27;;
77051;SDS011;65980;44.898;8.602;2023-09-08T08:42:54;26.80;;;14.50;;
77051;SDS011;65980;44.898;8.602;2023-09-08T08:46:01;17.17;;;11.05;;
77051;SDS011;65980;44.898;8.602;2023-09-08T08:49:09;23.65;;;12.20;;
77051;SDS011;65980;44.898;8.602;2023-09-08T08:52:59;18.42;;;11.85;;
77051;SDS011;65980;44.898;8.602;2023-09-08T08:56:05;17.63;;;12.35;;
77051;SDS011;65980;44.898;8.602;2023-09-08T08:59:12;19.13;;;11.07;;
77051;SDS011;65980;44.898;8.602;2023-09-08T09:02:17;17.92;;;11.48;;
77051;SDS011;65980;44.898;8.602;2023-09-08T09:05:23;20.95;;;10.85;;
77051;SDS011;65980;44.898;8.602;2023-09-08T09:08:27;12.32;;;8.60;;
77051;SDS011;65980;44.898;8.602;2023-09-08T09:11:32;10.68;;;7.43;;
77051;SDS011;65980;44.898;8.602;2023-09-08T09:14:36;12.20;;;7.95;;
77051;SDS011;65980;44.898;8.602;2023-09-08T09:17:45;15.85;;;9.05;;
77051;SDS011;65980;44.898;8.602;2023-09-08T09:22:25;15.40;;;7.82;;
77051;SDS011;65980;44.898;8.602;2023-09-08T09:34:06;9.23;;;5.80;;
77051;SDS011;65980;44.898;8.602;2023-09-08T09:37:10;9.18;;;5.72;;
77051;SDS011;65980;44.898;8.602;2023-09-08T09:40:15;8.75;;;5.47;;
77051;SDS011;65980;44.898;8.602;2023-09-08T09:43:20;10.10;;;6.53;;
77051;SDS011;65980;44.898;8.602;2023-09-08T09:46:29;10.27;;;6.05;;
77051;SDS011;65980;44.898;8.602;2023-09-08T09:49:33;11.52;;;6.28;;
77051;SDS011;65980;44.898;8.602;2023-09-08T09:52:46;10.70;;;6.60;;
77051;SDS011;65980;44.898;8.602;2023-09-08T09:55:52;13.75;;;7.28;;
77051;SDS011;65980;44.898;8.602;2023-09-08T09:58:57;23.98;;;7.32;;
77051;SDS011;65980;44.898;8.602;2023-09-08T10:02:02;16.17;;;7.03;;
77051;SDS011;65980;44.898;8.602;2023-09-08T10:05:11;13.07;;;6.55;;
77051;SDS011;65980;44.898;8.602;2023-09-08T10:08:19;10.70;;;6.10;;
77051;SDS011;65980;44.898;8.602;2023-09-08T10:11:23;9.88;;;5.30;;
77051;SDS011;65980;44.898;8.602;2023-09-08T10:14:34;12.98;;;5.85;;
77051;SDS011;65980;44.898;8.602;2023-09-08T10:17:40;11.95;;;5.30;;
77051;SDS011;65980;44.898;8.602;2023-09-08T10:20:45;12.20;;;4.72;;
77051;SDS011;65980;44.898;8.602;2023-09-08T10:23:57;9.23;;;4.53;;
77051;SDS011;65980;44.898;8.602;2023-09-08T10:27:28;11.35;;;4.93;;
77051;SDS011;65980;44.898;8.602;2023-09-08T10:30:33;6.00;;;4.55;;
77051;SDS011;65980;44.898;8.602;2023-09-08T10:33:38;8.52;;;4.22;;
77051;SDS011;65980;44.898;8.602;2023-09-08T10:36:44;7.13;;;4.10;;
77051;SDS011;65980;44.898;8.602;2023-09-08T10:39:48;6.38;;;4.28;;
77051;SDS011;65980;44.898;8.602;2023-09-08T10:43:05;10.00;;;5.05;;
77051;SDS011;65980;44.898;8.602;2023-09-08T10:46:12;8.10;;;3.97;;
77051;SDS011;65980;44.898;8.602;2023-09-08T10:49:26;7.13;;;4.50;;
77051;SDS011;65980;44.898;8.602;2023-09-08T10:52:30;6.40;;;4.10;;
77051;SDS011;65980;44.898;8.602;2023-09-08T10:55:41;10.57;;;4.35;;
77051;SDS011;65980;44.898;8.602;2023-09-08T10:58:58;7.88;;;4.05;;
77051;SDS011;65980;44.898;8.602;2023-09-08T11:02:04;6.05;;;4.00;;
77051;SDS011;65980;44.898;8.602;2023-09-08T11:05:10;5.53;;;3.67;;
77051;SDS011;65980;44.898;8.602;2023-09-08T11:08:18;9.05;;;4.00;;
77051;SDS011;65980;44.898;8.602;2023-09-08T11:11:22;5.07;;;3.60;;
77051;SDS011;65980;44.898;8.602;2023-09-08T11:14:26;11.98;;;4.55;;
77051;SDS011;65980;44.898;8.602;2023-09-08T11:17:33;11.05;;;4.53;;
77051;SDS011;65980;44.898;8.602;2023-09-08T11:20:43;5.43;;;4.07;;
77051;SDS011;65980;44.898;8.602;2023-09-08T11:23:48;8.35;;;4.60;;
77051;SDS011;65980;44.898;8.602;2023-09-08T11:26:52;7.88;;;4.18;;
77051;SDS011;65980;44.898;8.602;2023-09-08T11:29:57;8.23;;;4.60;;
77051;SDS011;65980;44.898;8.602;2023-09-08T11:33:03;5.60;;;4.13;;
77051;SDS011;65980;44.898;8.602;2023-09-08T11:36:14;5.25;;;4.20;;
77051;SDS011;65980;44.898;8.602;2023-09-08T11:39:24;10.52;;;4.20;;
77051;SDS011;65980;44.898;8.602;2023-09-08T11:42:32;11.20;;;4.18;;
77051;SDS011;65980;44.898;8.602;2023-09-08T11:45:37;9.38;;;4.18;;
77051;SDS011;65980;44.898;8.602;2023-09-08T11:48:42;6.28;;;4.22;;
77051;SDS011;65980;44.898;8.602;2023-09-08T11:51:47;7.15;;;3.85;;
77051;SDS011;65980;44.898;8.602;2023-09-08T11:54:52;5.22;;;3.67;;
77051;SDS011;65980;44.898;8.602;2023-09-08T11:57:56;5.13;;;3.60;;
77051;SDS011;65980;44.898;8.602;2023-09-08T12:01:06;9.10;;;4.30;;
77051;SDS011;65980;44.898;8.602;2023-09-08T12:04:18;6.68;;;4.10;;
77051;SDS011;65980;44.898;8.602;2023-09-08T12:10:28;6.82;;;4.05;;
77051;SDS011;65980;44.898;8.602;2023-09-08T12:13:32;7.55;;;4.72;;
77051;SDS011;65980;44.898;8.602;2023-09-08T12:16:36;8.93;;;4.43;;
77051;SDS011;65980;44.898;8.602;2023-09-08T12:19:42;5.28;;;3.78;;
77051;SDS011;65980;44.898;8.602;2023-09-08T12:22:48;11.95;;;4.35;;
77051;SDS011;65980;44.898;8.602;2023-09-08T12:25:56;6.50;;;4.13;;
77051;SDS011;65980;44.898;8.602;2023-09-08T12:29:03;8.57;;;4.00;;
77051;SDS011;65980;44.898;8.602;2023-09-08T12:37:51;10.90;;;4.10;;
77051;SDS011;65980;44.898;8.602;2023-09-08T12:41:42;5.45;;;3.65;;
77051;SDS011;65980;44.898;8.602;2023-09-08T12:44:55;5.10;;;4.03;;
77051;SDS011;65980;44.898;8.602;2023-09-08T12:48:12;8.65;;;4.07;;
77051;SDS011;65980;44.898;8.602;2023-09-08T12:51:28;6.13;;;4.10;;
77051;SDS011;65980;44.898;8.602;2023-09-08T12:54:54;6.20;;;3.47;;
77051;SDS011;65980;44.898;8.602;2023-09-08T13:02:12;6.40;;;4.20;;
77051;SDS011;65980;44.898;8.602;2023-09-08T13:05:16;12.68;;;4.10;;
77051;SDS011;65980;44.898;8.602;2023-09-08T13:09:42;6.30;;;4.03;;
77051;SDS011;65980;44.898;8.602;2023-09-08T13:12:50;7.95;;;3.97;;
77051;SDS011;65980;44.898;8.602;2023-09-08T13:15:59;6.60;;;4.00;;
77051;SDS011;65980;44.898;8.602;2023-09-08T13:19:07;6.70;;;4.10;;
77051;SDS011;65980;44.898;8.602;2023-09-08T13:22:12;4.82;;;3.70;;
77051;SDS011;65980;44.898;8.602;2023-09-08T13:25:18;6.00;;;4.13;;
77051;SDS011;65980;44.898;8.602;2023-09-08T13:28:25;4.72;;;3.60;;
77051;SDS011;65980;44.898;8.602;2023-09-08T13:31:29;5.47;;;4.53;;
77051;SDS011;65980;44.898;8.602;2023-09-08T13:34:36;7.07;;;4.25;;
77051;SDS011;65980;44.898;8.602;2023-09-08T13:45:15;6.28;;;3.92;;
77051;SDS011;65980;44.898;8.602;2023-09-08T13:48:19;7.82;;;4.22;;
77051;SDS011;65980;44.898;8.602;2023-09-08T13:51:23;7.10;;;3.60;;
77051;SDS011;65980;44.898;8.602;2023-09-08T13:54:27;7.90;;;4.03;;
77051;SDS011;65980;44.898;8.602;2023-09-08T13:57:31;5.57;;;4.20;;
77051;SDS011;65980;44.898;8.602;2023-09-08T14:00:36;5.40;;;3.83;;
77051;SDS011;65980;44.898;8.602;2023-09-08T14:03:42;6.38;;;3.90;;
77051;SDS011;65980;44.898;8.602;2023-09-08T14:06:46;6.25;;;4.10;;
77051;SDS011;65980;44.898;8.602;2023-09-08T14:09:51;4.97;;;3.97;;
77051;SDS011;65980;44.898;8.602;2023-09-08T14:12:56;7.55;;;4.60;;
77051;SDS011;65980;44.898;8.602;2023-09-08T14:16:00;8.10;;;4.13;;
77051;SDS011;65980;44.898;8.602;2023-09-08T14:19:05;8.52;;;4.18;;
77051;SDS011;65980;44.898;8.602;2023-09-08T14:22:09;8.00;;;3.95;;
77051;SDS011;65980;44.898;8.602;2023-09-08T14:25:14;7.03;;;4.20;;
77051;SDS011;65980;44.898;8.602;2023-09-08T14:28:19;15.25;;;4.15;;
77051;SDS011;65980;44.898;8.602;2023-09-08T14:31:23;8.35;;;4.07;;
77051;SDS011;65980;44.898;8.602;2023-09-08T14:34:27;8.13;;;4.18;;
77051;SDS011;65980;44.898;8.602;2023-09-08T14:37:33;8.68;;;4.18;;
77051;SDS011;65980;44.898;8.602;2023-09-08T14:40:38;5.63;;;4.00;;
77051;SDS011;65980;44.898;8.602;2023-09-08T14:43:42;7.47;;;3.50;;
77051;SDS011;65980;44.898;8.602;2023-09-08T14:46:46;5.50;;;3.90;;
77051;SDS011;65980;44.898;8.602;2023-09-08T14:49:50;10.60;;;4.15;;
77051;SDS011;65980;44.898;8.602;2023-09-08T14:52:54;5.88;;;4.00;;
77051;SDS011;65980;44.898;8.602;2023-09-08T14:55:59;8.93;;;3.90;;
77051;SDS011;65980;44.898;8.602;2023-09-08T14:59:03;10.25;;;3.95;;
77051;SDS011;65980;44.898;8.602;2023-09-08T15:02:08;6.10;;;3.70;;
77051;SDS011;65980;44.898;8.602;2023-09-08T15:05:13;7.88;;;4.30;;
77051;SDS011;65980;44.898;8.602;2023-09-08T15:08:18;4.85;;;4.05;;
77051;SDS011;65980;44.898;8.602;2023-09-08T15:11:22;5.25;;;3.83;;
77051;SDS011;65980;44.898;8.602;2023-09-08T15:14:26;4.65;;;3.75;;
77051;SDS011;65980;44.898;8.602;2023-09-08T15:17:30;5.20;;;3.90;;
77051;SDS011;65980;44.898;8.602;2023-09-08T15:20:34;10.05;;;3.90;;
77051;SDS011;65980;44.898;8.602;2023-09-08T15:23:38;9.00;;;4.32;;
77051;SDS011;65980;44.898;8.602;2023-09-08T15:26:42;5.03;;;3.70;;
77051;SDS011;65980;44.898;8.602;2023-09-08T15:29:49;6.28;;;3.83;;
77051;SDS011;65980;44.898;8.602;2023-09-08T15:32:53;5.45;;;3.83;;
77051;SDS011;65980;44.898;8.602;2023-09-08T15:35:57;4.97;;;3.63;;
77051;SDS011;65980;44.898;8.602;2023-09-08T15:39:01;5.70;;;4.05;;
77051;SDS011;65980;44.898;8.602;2023-09-08T15:42:05;6.78;;;3.90;;
77051;SDS011;65980;44.898;8.602;2023-09-08T15:45:09;5.97;;;3.80;;
77051;SDS011;65980;44.898;8.602;2023-09-08T15:48:15;8.30;;;4.18;;
77051;SDS011;65980;44.898;8.602;2023-09-08T15:51:19;6.65;;;4.20;;
77051;SDS011;65980;44.898;8.602;2023-09-08T15:54:23;7.10;;;3.95;;
77051;SDS011;65980;44.898;8.602;2023-09-08T15:57:27;6.68;;;3.50;;
77051;SDS011;65980;44.898;8.602;2023-09-08T16:00:32;5.78;;;3.85;;
77051;SDS011;65980;44.898;8.602;2023-09-08T16:03:36;8.75;;;3.92;;
77051;SDS011;65980;44.898;8.602;2023-09-08T16:06:40;9.30;;;3.90;;
77051;SDS011;65980;44.898;8.602;2023-09-08T16:09:44;6.93;;;3.90;;
77051;SDS011;65980;44.898;8.602;2023-09-08T16:12:49;6.97;;;4.18;;
77051;SDS011;65980;44.898;8.602;2023-09-08T16:15:53;6.55;;;3.97;;
77051;SDS011;65980;44.898;8.602;2023-09-08T16:18:57;11.02;;;4.78;;
77051;SDS011;65980;44.898;8.602;2023-09-08T16:22:02;5.68;;;4.53;;
77051;SDS011;65980;44.898;8.602;2023-09-08T16:25:08;9.82;;;4.50;;
77051;SDS011;65980;44.898;8.602;2023-09-08T16:28:12;5.57;;;4.20;;
77051;SDS011;65980;44.898;8.602;2023-09-08T16:31:17;13.43;;;4.32;;
77051;SDS011;65980;44.898;8.602;2023-09-08T16:34:22;5.20;;;4.00;;
77051;SDS011;65980;44.898;8.602;2023-09-08T16:37:26;11.65;;;4.30;;
77051;SDS011;65980;44.898;8.602;2023-09-08T16:40:33;6.78;;;4.13;;
77051;SDS011;65980;44.898;8.602;2023-09-08T16:43:37;5.80;;;3.63;;
77051;SDS011;65980;44.898;8.602;2023-09-08T16:46:41;4.70;;;3.85;;
77051;SDS011;65980;44.898;8.602;2023-09-08T16:49:45;5.05;;;3.72;;
77051;SDS011;65980;44.898;8.602;2023-09-08T16:52:48;8.55;;;4.00;;
77051;SDS011;65980;44.898;8.602;2023-09-08T16:55:53;8.45;;;3.83;;
77051;SDS011;65980;44.898;8.602;2023-09-08T16:58:57;8.80;;;4.03;;
77051;SDS011;65980;44.898;8.602;2023-09-08T17:02:01;8.27;;;4.00;;
77051;SDS011;65980;44.898;8.602;2023-09-08T17:05:06;7.85;;;3.72;;
77051;SDS011;65980;44.898;8.602;2023-09-08T17:08:12;9.75;;;3.85;;
77051;SDS011;65980;44.898;8.602;2023-09-08T17:11:17;5.15;;;3.95;;
77051;SDS011;65980;44.898;8.602;2023-09-08T17:14:22;6.13;;;4.00;;
77051;SDS011;65980;44.898;8.602;2023-09-08T17:17:26;8.00;;;3.92;;
77051;SDS011;65980;44.898;8.602;2023-09-08T17:20:30;9.65;;;4.03;;
77051;SDS011;65980;44.898;8.602;2023-09-08T17:23:35;6.65;;;4.10;;
77051;SDS011;65980;44.898;8.602;2023-09-08T17:26:39;6.35;;;3.97;;
77051;SDS011;65980;44.898;8.602;2023-09-08T17:29:43;6.13;;;4.10;;
77051;SDS011;65980;44.898;8.602;2023-09-08T17:32:47;7.18;;;4.28;;
77051;SDS011;65980;44.898;8.602;2023-09-08T17:35:52;6.25;;;4.65;;
77051;SDS011;65980;44.898;8.602;2023-09-08T17:38:57;9.48;;;4.90;;
77051;SDS011;65980;44.898;8.602;2023-09-08T17:42:02;6.15;;;4.75;;
77051;SDS011;65980;44.898;8.602;2023-09-08T17:45:07;6.95;;;4.70;;
77051;SDS011;65980;44.898;8.602;2023-09-08T17:48:12;9.95;;;4.65;;
77051;SDS011;65980;44.898;8.602;2023-09-08T17:51:16;10.40;;;4.68;;
77051;SDS011;65980;44.898;8.602;2023-09-08T17:54:21;7.20;;;4.55;;
77051;SDS011;65980;44.898;8.602;2023-09-08T17:57:24;10.30;;;4.85;;
77051;SDS011;65980;44.898;8.602;2023-09-08T18:00:29;7.03;;;4.25;;
77051;SDS011;65980;44.898;8.602;2023-09-08T18:03:33;9.77;;;4.53;;
77051;SDS011;65980;44.898;8.602;2023-09-08T18:06:37;7.53;;;4.57;;
77051;SDS011;65980;44.898;8.602;2023-09-08T18:09:45;7.97;;;4.45;;
77051;SDS011;65980;44.898;8.602;2023-09-08T18:12:50;8.02;;;4.97;;
77051;SDS011;65980;44.898;8.602;2023-09-08T18:16:02;6.90;;;5.10;;
77051;SDS011;65980;44.898;8.602;2023-09-08T18:19:07;7.15;;;5.03;;
77051;SDS011;65980;44.898;8.602;2023-09-08T18:22:14;10.30;;;5.25;;
77051;SDS011;65980;44.898;8.602;2023-09-08T18:25:17;12.98;;;4.82;;
77051;SDS011;65980;44.898;8.602;2023-09-08T18:28:22;16.00;;;5.45;;
77051;SDS011;65980;44.898;8.602;2023-09-08T18:31:26;16.75;;;5.78;;
77051;SDS011;65980;44.898;8.602;2023-09-08T18:34:33;15.82;;;5.65;;
77051;SDS011;65980;44.898;8.602;2023-09-08T18:37:37;12.45;;;5.80;;
77051;SDS011;65980;44.898;8.602;2023-09-08T18:40:45;14.98;;;6.10;;
77051;SDS011;65980;44.898;8.602;2023-09-08T18:43:50;7.30;;;5.32;;
77051;SDS011;65980;44.898;8.602;2023-09-08T18:46:54;12.07;;;6.28;;
77051;SDS011;65980;44.898;8.602;2023-09-08T18:49:59;8.10;;;5.32;;
77051;SDS011;65980;44.898;8.602;2023-09-08T18:53:03;10.93;;;5.03;;
77051;SDS011;65980;44.898;8.602;2023-09-08T18:56:08;9.68;;;5.45;;
77051;SDS011;65980;44.898;8.602;2023-09-08T18:59:13;10.70;;;5.47;;
77051;SDS011;65980;44.898;8.602;2023-09-08T19:02:17;6.63;;;5.10;;